sensor_id;sensor_type;location;lat;lon;timestamp;temperature;humidity
28069;DHT22;15382;47.578;8.086;2023-02-28T00:09:46;-0.30;99.90
28069;DHT22;15382;47.578;8.086;2023-02-28T00:19:48;-0.30;99.90
28069;DHT22;15382;47.578;8.086;2023-02-28T00:29:49;-0.40;99.90
28069;DHT22;15382;47.578;8.086;2023-02-28T00:39:50;-0.30;99.90
28069;DHT22;15382;47.578;8.086;2023-02-28T00:49:51;-0.30;99.90
28069;DHT22;15382;47.578;8.086;2023-02-28T00:59:52;-0.30;99.90
28069;DHT22;15382;47.578;8.086;2023-02-28T01:09:55;-0.40;99.90
28069;DHT22;15382;47.578;8.086;2023-02-28T01:19:56;-0.40;99.90
28069;DHT22;15382;47.578;8.086;2023-02-28T01:29:59;-0.30;99.90
28069;DHT22;15382;47.578;8.086;2023-02-28T01:40:00;-0.40;99.90
28069;DHT22;15382;47.578;8.086;2023-02-28T01:50:03;-0.40;99.90
28069;DHT22;15382;47.578;8.086;2023-02-28T02:00:09;-0.40;99.90
28069;DHT22;15382;47.578;8.086;2023-02-28T02:10:34;-0.40;99.90
28069;DHT22;15382;47.578;8.086;2023-02-28T02:20:45;-0.40;99.90
28069;DHT22;15382;47.578;8.086;2023-02-28T02:41:11;-0.40;99.90
28069;DHT22;15382;47.578;8.086;2023-02-28T02:51:17;-0.40;99.90
28069;DHT22;15382;47.578;8.086;2023-02-28T03:01:22;-0.40;99.90
28069;DHT22;15382;47.578;8.086;2023-02-28T03:11:28;-0.40;99.90
28069;DHT22;15382;47.578;8.086;2023-02-28T03:22:10;-0.40;99.90
28069;DHT22;15382;47.578;8.086;2023-02-28T03:32:28;-0.50;99.90
28069;DHT22;15382;47.578;8.086;2023-02-28T03:42:32;-0.50;99.90
28069;DHT22;15382;47.578;8.086;2023-02-28T03:52:38;-0.50;99.90
28069;DHT22;15382;47.578;8.086;2023-02-28T04:02:42;-0.50;99.90
28069;DHT22;15382;47.578;8.086;2023-02-28T04:12:43;-0.60;99.90
28069;DHT22;15382;47.578;8.086;2023-02-28T04:22:43;-0.60;99.90
28069;DHT22;15382;47.578;8.086;2023-02-28T04:32:44;-0.50;99.90
28069;DHT22;15382;47.578;8.086;2023-02-28T04:42:45;-0.50;99.90
28069;DHT22;15382;47.578;8.086;2023-02-28T04:52:46;-0.50;99.90
28069;DHT22;15382;47.578;8.086;2023-02-28T05:02:47;-0.50;99.90
28069;DHT22;15382;47.578;8.086;2023-02-28T05:12:48;-0.50;99.90
28069;DHT22;15382;47.578;8.086;2023-02-28T05:22:49;-0.60;99.90
28069;DHT22;15382;47.578;8.086;2023-02-28T05:32:51;-0.50;99.90
28069;DHT22;15382;47.578;8.086;2023-02-28T05:42:52;-0.50;99.90
28069;DHT22;15382;47.578;8.086;2023-02-28T05:52:55;-0.50;99.90
28069;DHT22;15382;47.578;8.086;2023-02-28T06:02:56;-0.60;99.90
28069;DHT22;15382;47.578;8.086;2023-02-28T06:13:01;-0.60;99.90
28069;DHT22;15382;47.578;8.086;2023-02-28T06:23:03;-0.50;99.90
28069;DHT22;15382;47.578;8.086;2023-02-28T06:33:04;-0.50;99.90
28069;DHT22;15382;47.578;8.086;2023-02-28T06:43:04;-0.50;99.90
28069;DHT22;15382;47.578;8.086;2023-02-28T06:53:05;-0.50;99.90
28069;DHT22;15382;47.578;8.086;2023-02-28T07:03:06;-0.40;99.90
28069;DHT22;15382;47.578;8.086;2023-02-28T07:13:08;-0.40;99.90
28069;DHT22;15382;47.578;8.086;2023-02-28T07:23:09;-0.40;99.90
28069;DHT22;15382;47.578;8.086;2023-02-28T07:33:10;-0.40;99.90
28069;DHT22;15382;47.578;8.086;2023-02-28T07:43:10;-0.30;99.90
28069;DHT22;15382;47.578;8.086;2023-02-28T07:53:11;-0.20;99.90
28069;DHT22;15382;47.578;8.086;2023-02-28T08:03:13;-0.20;99.90
28069;DHT22;15382;47.578;8.086;2023-02-28T08:13:13;-0.10;99.90
28069;DHT22;15382;47.578;8.086;2023-02-28T08:23:14;0.00;99.90
28069;DHT22;15382;47.578;8.086;2023-02-28T08:33:15;0.80;99.90
28069;DHT22;15382;47.578;8.086;2023-02-28T08:43:16;1.20;99.90
28069;DHT22;15382;47.578;8.086;2023-02-28T08:53:17;0.30;99.90
28069;DHT22;15382;47.578;8.086;2023-02-28T09:03:18;0.40;99.90
28069;DHT22;15382;47.578;8.086;2023-02-28T09:13:19;0.50;99.90
28069;DHT22;15382;47.578;8.086;2023-02-28T09:23:20;0.70;99.90
28069;DHT22;15382;47.578;8.086;2023-02-28T09:33:21;0.80;99.90
28069;DHT22;15382;47.578;8.086;2023-02-28T09:43:25;0.80;99.90
28069;DHT22;15382;47.578;8.086;2023-02-28T09:53:30;1.30;99.90
28069;DHT22;15382;47.578;8.086;2023-02-28T10:03:42;1.10;99.90
28069;DHT22;15382;47.578;8.086;2023-02-28T10:23:55;1.50;99.90
28069;DHT22;15382;47.578;8.086;2023-02-28T10:33:58;1.40;99.90
28069;DHT22;15382;47.578;8.086;2023-02-28T10:44:20;1.60;99.90
28069;DHT22;15382;47.578;8.086;2023-02-28T10:54:34;1.20;99.90
28069;DHT22;15382;47.578;8.086;2023-02-28T11:04:37;1.30;99.90
28069;DHT22;15382;47.578;8.086;2023-02-28T11:14:49;1.50;99.90
28069;DHT22;15382;47.578;8.086;2023-02-28T11:24:56;1.50;99.90
28069;DHT22;15382;47.578;8.086;2023-02-28T11:35:17;1.50;99.90
28069;DHT22;15382;47.578;8.086;2023-02-28T12:16:43;1.40;99.90
28069;DHT22;15382;47.578;8.086;2023-02-28T12:26:46;1.50;99.90
28069;DHT22;15382;47.578;8.086;2023-02-28T12:36:49;1.60;99.90
28069;DHT22;15382;47.578;8.086;2023-02-28T12:46:55;1.60;99.90
28069;DHT22;15382;47.578;8.086;2023-02-28T12:57:20;1.80;99.90
28069;DHT22;15382;47.578;8.086;2023-02-28T13:17:30;2.00;99.90
28069;DHT22;15382;47.578;8.086;2023-02-28T13:27:41;2.10;99.90
28069;DHT22;15382;47.578;8.086;2023-02-28T13:37:44;2.20;99.90
28069;DHT22;15382;47.578;8.086;2023-02-28T13:48:00;1.90;99.90
28069;DHT22;15382;47.578;8.086;2023-02-28T14:08:20;2.20;99.90
28069;DHT22;15382;47.578;8.086;2023-02-28T14:18:29;2.20;99.90
28069;DHT22;15382;47.578;8.086;2023-02-28T14:39:10;2.10;99.90
28069;DHT22;15382;47.578;8.086;2023-02-28T14:49:21;2.20;99.90
28069;DHT22;15382;47.578;8.086;2023-02-28T14:59:29;2.00;99.90
28069;DHT22;15382;47.578;8.086;2023-02-28T15:09:30;2.10;99.90
28069;DHT22;15382;47.578;8.086;2023-02-28T15:19:36;2.00;99.90
28069;DHT22;15382;47.578;8.086;2023-02-28T15:29:51;2.00;99.90
28069;DHT22;15382;47.578;8.086;2023-02-28T15:39:56;1.80;99.90
28069;DHT22;15382;47.578;8.086;2023-02-28T15:50:09;1.80;99.90
28069;DHT22;15382;47.578;8.086;2023-02-28T16:00:15;1.80;99.90
28069;DHT22;15382;47.578;8.086;2023-02-28T16:10:16;1.70;99.90
28069;DHT22;15382;47.578;8.086;2023-02-28T16:20:21;1.60;99.90
28069;DHT22;15382;47.578;8.086;2023-02-28T16:30:24;1.70;99.90
28069;DHT22;15382;47.578;8.086;2023-02-28T16:40:26;1.50;99.90
28069;DHT22;15382;47.578;8.086;2023-02-28T16:50:30;1.30;99.90
28069;DHT22;15382;47.578;8.086;2023-02-28T17:00:33;1.00;99.90
28069;DHT22;15382;47.578;8.086;2023-02-28T17:10:34;0.80;99.90
28069;DHT22;15382;47.578;8.086;2023-02-28T17:20:34;0.60;99.90
28069;DHT22;15382;47.578;8.086;2023-02-28T17:30:35;0.40;99.90
28069;DHT22;15382;47.578;8.086;2023-02-28T17:40:36;0.20;99.90
28069;DHT22;15382;47.578;8.086;2023-02-28T17:50:37;0.10;99.90
28069;DHT22;15382;47.578;8.086;2023-02-28T18:00:38;0.20;99.90
28069;DHT22;15382;47.578;8.086;2023-02-28T18:10:38;0.20;99.90
28069;DHT22;15382;47.578;8.086;2023-02-28T18:20:39;0.10;99.90
28069;DHT22;15382;47.578;8.086;2023-02-28T18:30:40;0.00;99.90
28069;DHT22;15382;47.578;8.086;2023-02-28T18:40:41;0.00;99.90
28069;DHT22;15382;47.578;8.086;2023-02-28T18:50:42;-0.10;99.90
28069;DHT22;15382;47.578;8.086;2023-02-28T19:00:43;-0.30;99.90
28069;DHT22;15382;47.578;8.086;2023-02-28T19:10:43;-0.50;99.90
28069;DHT22;15382;47.578;8.086;2023-02-28T19:20:45;-0.20;99.90
28069;DHT22;15382;47.578;8.086;2023-02-28T19:30:47;-0.10;99.90
28069;DHT22;15382;47.578;8.086;2023-02-28T19:40:49;0.00;99.90
28069;DHT22;15382;47.578;8.086;2023-02-28T19:50:54;0.00;99.90
28069;DHT22;15382;47.578;8.086;2023-02-28T20:00:55;0.00;99.90
28069;DHT22;15382;47.578;8.086;2023-02-28T20:11:05;0.10;99.90
28069;DHT22;15382;47.578;8.086;2023-02-28T20:21:09;0.00;99.90
28069;DHT22;15382;47.578;8.086;2023-02-28T20:31:16;-0.20;99.90
28069;DHT22;15382;47.578;8.086;2023-02-28T20:41:17;-0.40;99.90
28069;DHT22;15382;47.578;8.086;2023-02-28T20:51:19;-0.70;99.90
28069;DHT22;15382;47.578;8.086;2023-02-28T21:01:25;-0.90;99.90
28069;DHT22;15382;47.578;8.086;2023-02-28T21:11:29;-0.90;99.90
28069;DHT22;15382;47.578;8.086;2023-02-28T21:21:33;-1.00;99.90
28069;DHT22;15382;47.578;8.086;2023-02-28T21:31:34;-1.40;99.90
28069;DHT22;15382;47.578;8.086;2023-02-28T21:41:36;-1.30;99.90
28069;DHT22;15382;47.578;8.086;2023-02-28T21:51:37;-1.20;99.90
28069;DHT22;15382;47.578;8.086;2023-02-28T22:01:39;-1.10;99.90
28069;DHT22;15382;47.578;8.086;2023-02-28T22:11:40;-1.00;99.90
28069;DHT22;15382;47.578;8.086;2023-02-28T22:21:41;-0.80;99.90
28069;DHT22;15382;47.578;8.086;2023-02-28T22:31:42;-0.70;99.90
28069;DHT22;15382;47.578;8.086;2023-02-28T22:41:43;-0.70;99.90
28069;DHT22;15382;47.578;8.086;2023-02-28T22:51:43;-0.70;99.90
28069;DHT22;15382;47.578;8.086;2023-02-28T23:01:44;-0.50;99.90
28069;DHT22;15382;47.578;8.086;2023-02-28T23:11:47;-0.40;99.90
28069;DHT22;15382;47.578;8.086;2023-02-28T23:21:49;-0.40;99.90
28069;DHT22;15382;47.578;8.086;2023-02-28T23:31:50;-0.40;99.90
28069;DHT22;15382;47.578;8.086;2023-02-28T23:41:52;-0.30;99.90
28069;DHT22;15382;47.578;8.086;2023-02-28T23:51:52;-0.20;99.90
